createdAt,value
2022-08-19T00:01:01.073Z,81.06
2022-08-19T00:02:03.240Z,80.79
2022-08-19T00:03:05.938Z,80.76
2022-08-19T00:04:09.284Z,80.68
2022-08-19T00:05:11.926Z,80.57
2022-08-19T00:06:13.852Z,80.73
2022-08-19T00:07:18.020Z,80.71
2022-08-19T00:08:19.904Z,80.69
2022-08-19T00:09:22.808Z,80.62
2022-08-19T00:10:25.676Z,80.76
2022-08-19T00:11:28.985Z,81.11
2022-08-19T00:12:30.875Z,81.29
2022-08-19T00:13:33.367Z,81.55
2022-08-19T00:14:35.928Z,81.22
2022-08-19T00:15:38.926Z,80.87
2022-08-19T00:16:40.922Z,80.97
2022-08-19T00:17:44.534Z,81.17
2022-08-19T00:18:46.486Z,81.07
2022-08-19T00:19:48.328Z,80.88
2022-08-19T00:20:50.100Z,81.50
2022-08-19T00:21:52.593Z,81.31
2022-08-19T00:22:55.536Z,81.21
2022-08-19T00:23:59.465Z,81.15
2022-08-19T00:25:02.236Z,80.98
2022-08-19T00:26:06.736Z,81.05
2022-08-19T00:27:25.947Z,81.22
2022-08-19T00:28:28.822Z,80.86
2022-08-19T00:29:30.783Z,80.94
2022-08-19T00:30:32.673Z,81.17
2022-08-19T00:31:34.517Z,81.19
2022-08-19T00:32:36.499Z,81.25
2022-08-19T00:33:38.378Z,81.05
2022-08-19T00:34:40.343Z,81.01
2022-08-19T00:35:42.199Z,81.32
2022-08-19T00:36:44.650Z,81.73
2022-08-19T00:37:46.545Z,81.69
2022-08-19T00:38:48.641Z,81.63
2022-08-19T00:39:52.447Z,81.72
2022-08-19T00:40:54.247Z,82.12
2022-08-19T00:41:56.187Z,82.28
2022-08-19T00:42:58.054Z,81.88
2022-08-19T00:44:00.130Z,81.86
2022-08-19T00:45:02.010Z,81.78
2022-08-19T00:46:05.932Z,81.63
2022-08-19T00:47:08.009Z,81.57
2022-08-19T00:48:17.730Z,81.65
2022-08-19T00:49:38.170Z,81.46
2022-08-19T00:50:51.725Z,81.29
2022-08-19T00:51:56.922Z,81.00
2022-08-19T00:53:01.134Z,81.03
2022-08-19T00:54:04.085Z,80.97
2022-08-19T00:55:09.280Z,81.10
2022-08-19T00:56:11.791Z,81.21
2022-08-19T00:57:15.320Z,81.34
2022-08-19T00:58:22.459Z,81.17
2022-08-19T01:00:00.272Z,81.05
2022-08-19T01:00:47.330Z,80.82
2022-08-19T01:01:49.362Z,80.92
2022-08-19T01:02:51.304Z,81.11
2022-08-19T01:03:56.821Z,81.16
2022-08-19T01:05:00.382Z,81.22
2022-08-19T01:06:02.448Z,80.92
2022-08-19T01:07:04.376Z,80.88
2022-08-19T01:08:06.996Z,81.00
2022-08-19T01:09:09.231Z,80.82
2022-08-19T01:10:13.580Z,80.80
2022-08-19T01:11:15.499Z,80.54
2022-08-19T01:12:18.115Z,80.56
2022-08-19T01:13:21.481Z,80.60
2022-08-19T01:14:24.157Z,80.59
2022-08-19T01:15:28.826Z,80.67
2022-08-19T01:16:31.343Z,80.48
2022-08-19T01:17:33.435Z,80.40
2022-08-19T01:18:38.786Z,80.54
2022-08-19T01:19:43.719Z,80.72
2022-08-19T01:20:46.781Z,80.87
2022-08-19T01:21:55.046Z,80.83
2022-08-19T01:22:58.457Z,80.84
2022-08-19T01:24:00.254Z,81.11
2022-08-19T01:25:02.543Z,80.96
2022-08-19T01:26:05.865Z,81.13
2022-08-19T01:27:10.883Z,81.08
2022-08-19T01:28:33.674Z,81.16
2022-08-19T01:29:39.050Z,81.21
2022-08-19T01:30:51.085Z,81.34
2022-08-19T01:31:53.425Z,81.18
2022-08-19T01:32:55.957Z,80.97
2022-08-19T01:33:58.556Z,80.86
2022-08-19T01:35:03.950Z,80.60
2022-08-19T01:36:10.066Z,81.04
2022-08-19T01:37:12.965Z,81.24
2022-08-19T01:38:25.600Z,81.31
2022-08-19T01:39:27.785Z,81.42
2022-08-19T01:40:32.114Z,81.58
2022-08-19T01:41:34.041Z,81.50
2022-08-19T01:42:36.474Z,81.26
2022-08-19T01:43:39.175Z,81.29
2022-08-19T01:45:01.539Z,81.38
2022-08-19T01:46:04.610Z,81.50
2022-08-19T01:47:07.428Z,81.85
2022-08-19T01:48:10.143Z,81.70
2022-08-19T01:49:12.294Z,81.83
2022-08-19T01:50:14.574Z,81.62
2022-08-19T01:51:16.784Z,82.40
2022-08-19T01:52:18.928Z,82.69
2022-08-19T01:53:20.996Z,82.65
2022-08-19T01:54:27.519Z,82.41
2022-08-19T01:55:30.322Z,82.15
2022-08-19T01:56:32.302Z,81.96
2022-08-19T01:57:34.305Z,82.08
2022-08-19T01:58:39.574Z,82.87
2022-08-19T01:59:42.989Z,82.63
2022-08-19T02:00:45.399Z,82.39
2022-08-19T02:01:47.375Z,82.29
2022-08-19T02:02:49.281Z,82.27
2022-08-19T02:03:51.377Z,82.02
2022-08-19T02:04:53.290Z,82.32
2022-08-19T02:06:00.852Z,82.11
2022-08-19T02:07:02.883Z,82.23
2022-08-19T02:08:05.334Z,82.66
2022-08-19T02:09:07.557Z,82.85
2022-08-19T02:10:13.362Z,82.93
2022-08-19T02:11:27.748Z,82.53
2022-08-19T02:12:29.617Z,82.35
2022-08-19T02:13:31.489Z,82.24
2022-08-19T02:14:35.241Z,82.09
2022-08-19T02:15:37.605Z,82.17
2022-08-19T02:16:39.622Z,82.17
2022-08-19T02:17:41.588Z,82.09
2022-08-19T02:18:43.424Z,82.15
2022-08-19T02:19:45.332Z,82.08
2022-08-19T02:20:48.794Z,82.01
2022-08-19T02:21:50.990Z,82.15
2022-08-19T02:22:54.011Z,82.06
2022-08-19T02:23:56.998Z,82.08
2022-08-19T02:24:58.841Z,81.96
2022-08-19T02:26:00.765Z,81.80
2022-08-19T02:27:02.701Z,81.82
2022-08-19T02:28:05.295Z,81.86
2022-08-19T02:29:07.131Z,81.97
2022-08-19T02:30:10.061Z,82.12
2022-08-19T02:31:19.126Z,82.28
2022-08-19T02:32:21.288Z,82.31
2022-08-19T02:33:23.205Z,82.14
2022-08-19T02:34:26.174Z,82.28
2022-08-19T02:35:28.012Z,82.01
2022-08-19T02:36:30.235Z,82.06
2022-08-19T02:37:50.506Z,82.20
2022-08-19T02:38:54.697Z,82.08
2022-08-19T02:39:57.533Z,82.10
2022-08-19T02:41:08.455Z,82.08
2022-08-19T02:42:10.595Z,82.24
2022-08-19T02:43:12.410Z,82.41
2022-08-19T02:44:29.332Z,82.50
2022-08-19T02:45:34.103Z,82.39
2022-08-19T02:46:36.966Z,82.34
2022-08-19T02:47:39.074Z,82.27
2022-08-19T02:48:40.911Z,82.19
2022-08-19T02:49:43.229Z,82.10
2022-08-19T02:50:53.044Z,82.05
2022-08-19T02:51:55.688Z,82.12
2022-08-19T02:52:57.637Z,82.14
2022-08-19T02:54:01.039Z,82.43
2022-08-19T02:55:03.143Z,82.79
2022-08-19T02:56:07.577Z,82.87
2022-08-19T02:57:09.549Z,82.91
2022-08-19T02:58:11.596Z,82.66
2022-08-19T02:59:13.495Z,82.78
2022-08-19T03:00:15.660Z,82.45
2022-08-19T03:01:25.051Z,82.34
2022-08-19T03:02:27.038Z,82.00
2022-08-19T03:03:29.041Z,81.83
2022-08-19T03:04:30.926Z,81.81
2022-08-19T03:05:48.117Z,82.39
2022-08-19T03:06:57.576Z,83.27
2022-08-19T03:08:02.825Z,83.37
2022-08-19T03:09:04.812Z,83.13
2022-08-19T03:10:07.154Z,82.90
2022-08-19T03:11:14.285Z,82.92
2022-08-19T03:12:16.629Z,82.78
2022-08-19T03:13:19.141Z,82.55
2022-08-19T03:14:21.114Z,82.55
2022-08-19T03:15:22.980Z,82.37
2022-08-19T03:16:26.954Z,82.36
2022-08-19T03:17:29.567Z,82.11
2022-08-19T03:18:31.513Z,82.11
2022-08-19T03:19:33.622Z,82.28
2022-08-19T03:20:35.475Z,82.21
2022-08-19T03:21:37.463Z,82.00
2022-08-19T03:22:39.285Z,82.51
2022-08-19T03:23:41.374Z,82.58
2022-08-19T03:24:44.768Z,83.00
2022-08-19T03:25:47.465Z,82.98
2022-08-19T03:27:06.100Z,83.12
2022-08-19T03:28:08.642Z,83.08
2022-08-19T03:29:13.240Z,82.82
2022-08-19T03:30:15.264Z,82.60
2022-08-19T03:31:43.770Z,82.62
2022-08-19T03:32:47.152Z,82.78
2022-08-19T03:33:55.675Z,82.67
2022-08-19T03:34:58.189Z,82.71
2022-08-19T03:36:05.047Z,82.64
2022-08-19T03:37:09.053Z,82.84
2022-08-19T03:38:10.898Z,83.08
2022-08-19T03:39:12.829Z,83.58
2022-08-19T03:40:16.639Z,83.78
2022-08-19T03:41:21.148Z,84.05
2022-08-19T03:42:32.340Z,83.56
2022-08-19T03:43:41.519Z,83.50
2022-08-19T03:44:45.788Z,83.83
2022-08-19T03:45:48.198Z,83.57
2022-08-19T03:46:51.670Z,83.24
2022-08-19T03:47:53.521Z,83.11
2022-08-19T03:48:57.177Z,83.38
2022-08-19T03:49:59.120Z,83.64
2022-08-19T03:51:01.055Z,83.53
2022-08-19T03:52:03.780Z,83.60
2022-08-19T03:53:05.549Z,83.53
2022-08-19T03:54:08.709Z,83.48
2022-08-19T03:55:10.628Z,83.67
2022-08-19T03:56:12.714Z,83.27
2022-08-19T03:57:14.684Z,83.23
2022-08-19T03:58:16.551Z,83.18
2022-08-19T03:59:26.267Z,83.26
2022-08-19T04:00:28.079Z,83.07
2022-08-19T04:01:34.819Z,82.79
2022-08-19T04:02:37.141Z,82.92
2022-08-19T04:03:40.657Z,83.19
2022-08-19T04:04:44.491Z,83.08
2022-08-19T04:05:47.787Z,83.23
2022-08-19T04:06:49.817Z,83.56
2022-08-19T04:07:51.663Z,83.27
2022-08-19T04:08:55.388Z,83.12
2022-08-19T04:09:57.480Z,83.25
2022-08-19T04:10:59.358Z,83.10
2022-08-19T04:12:01.219Z,82.94
2022-08-19T04:13:03.957Z,83.04
2022-08-19T04:14:05.767Z,82.84
2022-08-19T04:15:09.748Z,82.89
2022-08-19T04:16:11.703Z,83.50
2022-08-19T04:17:15.309Z,83.75
2022-08-19T04:18:17.268Z,83.57
2022-08-19T04:19:20.449Z,83.87
2022-08-19T04:20:22.229Z,83.49
2022-08-19T04:21:25.405Z,83.43
2022-08-19T04:22:27.239Z,83.95
2022-08-19T04:23:31.600Z,83.99
2022-08-19T04:24:34.985Z,83.96
2022-08-19T04:25:41.074Z,84.77
2022-08-19T04:26:42.885Z,84.90
2022-08-19T04:27:47.703Z,85.26
2022-08-19T04:28:50.457Z,85.25
2022-08-19T04:29:53.657Z,85.32
2022-08-19T04:30:55.989Z,85.80
2022-08-19T04:31:59.780Z,85.65
2022-08-19T04:33:01.800Z,85.37
2022-08-19T04:34:06.215Z,85.30
2022-08-19T04:35:16.969Z,85.63
2022-08-19T04:36:22.577Z,85.06
2022-08-19T04:37:24.454Z,85.31
2022-08-19T04:38:26.295Z,85.72
2022-08-19T04:39:49.862Z,85.95
2022-08-19T04:41:11.341Z,86.72
2022-08-19T04:42:31.933Z,86.54
2022-08-19T04:43:34.286Z,86.41
2022-08-19T04:44:39.864Z,86.13
2022-08-19T04:45:48.198Z,86.00
2022-08-19T04:46:52.049Z,85.74
2022-08-19T04:48:19.548Z,85.76
2022-08-19T04:49:22.989Z,85.46
2022-08-19T04:50:24.985Z,85.60
2022-08-19T04:51:26.808Z,85.45
2022-08-19T04:52:28.706Z,85.48
2022-08-19T04:53:35.553Z,86.73
2022-08-19T04:54:40.160Z,87.07
2022-08-19T04:55:43.233Z,87.02
2022-08-19T04:56:45.174Z,86.92
2022-08-19T04:57:47.065Z,86.92
2022-08-19T04:58:49.480Z,86.83
2022-08-19T04:59:55.273Z,86.44
2022-08-19T05:00:57.220Z,86.75
2022-08-19T05:01:59.002Z,87.53
2022-08-19T05:03:00.727Z,87.88
2022-08-19T05:04:05.889Z,87.92
2022-08-19T05:05:08.135Z,87.86
2022-08-19T05:06:12.669Z,87.64
2022-08-19T05:07:14.809Z,87.50
2022-08-19T05:08:30.585Z,87.63
2022-08-19T05:09:58.304Z,87.41
2022-08-19T05:10:55.357Z,87.53
2022-08-19T05:11:57.286Z,87.32
2022-08-19T05:12:59.333Z,87.44
2022-08-19T05:14:01.525Z,87.40
2022-08-19T05:15:04.500Z,88.21
2022-08-19T05:16:06.786Z,88.55
2022-08-19T05:17:26.732Z,88.54
2022-08-19T05:18:48.491Z,88.54
2022-08-19T05:20:08.687Z,88.33
2022-08-19T05:21:30.406Z,87.50
2022-08-19T05:22:36.915Z,87.21
2022-08-19T05:23:38.768Z,87.08
2022-08-19T05:24:56.425Z,86.96
2022-08-19T05:26:02.763Z,87.60
2022-08-19T05:27:06.886Z,87.47
2022-08-19T05:28:08.734Z,87.38
2022-08-19T05:29:11.711Z,87.26
2022-08-19T05:30:13.869Z,87.12
2022-08-19T05:31:15.658Z,86.92
2022-08-19T05:32:17.618Z,87.03
2022-08-19T05:33:19.911Z,87.60
2022-08-19T05:34:23.237Z,87.80
2022-08-19T05:35:25.331Z,87.86
2022-08-19T05:36:28.168Z,87.72
2022-08-19T05:37:30.125Z,87.63
2022-08-19T05:38:32.017Z,87.34
2022-08-19T05:39:35.630Z,87.48
2022-08-19T05:40:38.171Z,87.25
2022-08-19T05:41:44.408Z,87.28
2022-08-19T05:42:47.147Z,87.15
2022-08-19T05:43:58.444Z,87.76
2022-08-19T05:45:00.302Z,87.69
2022-08-19T05:46:02.108Z,87.75
2022-08-19T05:47:05.835Z,88.24
2022-08-19T05:48:08.032Z,88.25
2022-08-19T05:49:09.871Z,88.63
2022-08-19T05:50:11.940Z,88.75
2022-08-19T05:51:14.038Z,88.45
2022-08-19T05:52:25.781Z,88.60
2022-08-19T05:53:27.954Z,88.75
2022-08-19T05:54:29.841Z,88.62
2022-08-19T05:55:31.791Z,88.42
2022-08-19T05:56:34.268Z,88.45
2022-08-19T05:57:36.146Z,88.00
2022-08-19T05:58:38.868Z,87.64
2022-08-19T05:59:40.762Z,87.89
2022-08-19T06:00:44.759Z,87.59
2022-08-19T06:01:47.298Z,87.73
2022-08-19T06:02:49.361Z,87.64
2022-08-19T06:03:51.340Z,87.45
2022-08-19T06:04:53.217Z,87.42
2022-08-19T06:05:55.653Z,87.67
2022-08-19T06:06:57.595Z,87.98
2022-08-19T06:08:02.910Z,88.00
2022-08-19T06:09:06.127Z,87.96
2022-08-19T06:10:09.493Z,88.91
2022-08-19T06:11:15.773Z,89.57
2022-08-19T06:12:17.625Z,89.72
2022-08-19T06:13:21.086Z,89.90
2022-08-19T06:14:27.713Z,89.71
2022-08-19T06:15:30.495Z,89.54
2022-08-19T06:16:33.028Z,89.27
2022-08-19T06:17:36.586Z,89.09
2022-08-19T06:18:38.463Z,88.83
2022-08-19T06:19:40.920Z,88.71
2022-08-19T06:20:55.441Z,88.64
2022-08-19T06:21:59.738Z,88.41
2022-08-19T06:23:01.581Z,88.40
2022-08-19T06:24:04.892Z,88.43
2022-08-19T06:25:06.936Z,88.42
2022-08-19T06:26:13.025Z,88.42
2022-08-19T06:27:15.110Z,88.59
2022-08-19T06:28:17.448Z,88.24
2022-08-19T06:29:23.664Z,88.47
2022-08-19T06:30:26.373Z,88.88
2022-08-19T06:31:29.316Z,89.02
2022-08-19T06:32:31.567Z,88.98
2022-08-19T06:33:33.360Z,89.25
2022-08-19T06:34:35.474Z,89.40
2022-08-19T06:35:40.548Z,89.36
2022-08-19T06:36:44.862Z,89.30
2022-08-19T06:37:47.037Z,88.89
2022-08-19T06:38:49.081Z,88.85
2022-08-19T06:39:51.562Z,88.73
2022-08-19T06:41:00.989Z,88.70
2022-08-19T06:42:05.028Z,88.64
2022-08-19T06:43:07.681Z,88.58
2022-08-19T06:44:13.265Z,88.44
2022-08-19T06:45:15.947Z,88.19
2022-08-19T06:46:19.855Z,88.12
2022-08-19T06:47:23.964Z,88.21
2022-08-19T06:48:31.346Z,88.09
2022-08-19T06:49:35.583Z,88.28
2022-08-19T06:50:39.457Z,88.54
2022-08-19T06:51:44.538Z,88.47
2022-08-19T06:52:46.358Z,88.61
2022-08-19T06:53:52.857Z,88.62
2022-08-19T06:54:59.724Z,88.48
2022-08-19T06:56:03.768Z,88.71
2022-08-19T06:57:05.745Z,88.62
2022-08-19T06:58:07.598Z,88.67
2022-08-19T06:59:11.829Z,88.56
2022-08-19T07:00:17.121Z,88.51
2022-08-19T07:01:19.470Z,88.39
2022-08-19T07:02:22.058Z,88.36
2022-08-19T07:03:23.967Z,88.36
2022-08-19T07:04:27.643Z,88.48
2022-08-19T07:05:29.469Z,88.65
2022-08-19T07:06:44.006Z,88.54
2022-08-19T07:07:47.599Z,88.65
2022-08-19T07:08:49.725Z,88.46
2022-08-19T07:10:00.906Z,88.44
2022-08-19T07:11:09.454Z,88.33
2022-08-19T07:12:15.091Z,88.52
2022-08-19T07:13:16.908Z,88.59
2022-08-19T07:14:20.490Z,88.53
2022-08-19T07:15:22.618Z,88.87
2022-08-19T07:16:29.221Z,89.50
2022-08-19T07:17:34.665Z,89.46
2022-08-19T07:18:37.392Z,89.72
2022-08-19T07:19:41.069Z,89.75
2022-08-19T07:20:44.190Z,89.69
2022-08-19T07:21:50.465Z,89.56
2022-08-19T07:22:52.660Z,89.53
2022-08-19T07:23:56.835Z,89.16
2022-08-19T07:24:58.781Z,89.31
2022-08-19T07:26:05.690Z,89.29
2022-08-19T07:27:15.132Z,89.41
2022-08-19T07:28:24.280Z,89.36
2022-08-19T07:29:28.572Z,89.20
2022-08-19T07:30:30.909Z,88.63
2022-08-19T07:31:37.553Z,88.48
2022-08-19T07:32:40.036Z,87.73
2022-08-19T07:33:44.241Z,87.37
2022-08-19T07:34:46.591Z,87.31
2022-08-19T07:35:48.609Z,87.15
2022-08-19T07:36:51.640Z,86.45
2022-08-19T07:37:54.367Z,86.63
2022-08-19T07:38:56.585Z,86.58
2022-08-19T07:39:58.465Z,86.65
2022-08-19T07:41:01.053Z,86.69
2022-08-19T07:42:05.277Z,86.50
2022-08-19T07:43:07.893Z,86.20
2022-08-19T07:44:12.240Z,86.31
2022-08-19T07:45:14.045Z,86.51
2022-08-19T07:46:16.577Z,86.17
2022-08-19T07:47:50.060Z,86.46
2022-08-19T07:48:42.527Z,86.25
2022-08-19T07:49:44.360Z,86.46
2022-08-19T07:50:46.630Z,86.39
2022-08-19T07:51:51.220Z,86.27
2022-08-19T07:52:53.027Z,86.73
2022-08-19T07:53:55.465Z,86.72
2022-08-19T07:54:57.270Z,86.76
2022-08-19T07:56:04.015Z,86.97
2022-08-19T07:57:06.654Z,87.07
2022-08-19T07:58:08.858Z,87.04
2022-08-19T07:59:11.266Z,87.19
2022-08-19T08:00:13.456Z,86.73
2022-08-19T08:01:18.054Z,86.43
2022-08-19T08:02:19.992Z,84.73
2022-08-19T08:03:42.446Z,83.82
2022-08-19T08:05:02.917Z,84.07
2022-08-19T08:06:23.277Z,84.37
2022-08-19T08:07:46.165Z,83.00
2022-08-19T08:09:06.983Z,82.90
2022-08-19T08:10:13.988Z,83.04
2022-08-19T08:11:23.990Z,81.96
2022-08-19T08:12:36.705Z,82.53
2022-08-19T08:13:42.517Z,82.22
2022-08-19T08:14:47.818Z,81.83
2022-08-19T08:15:49.578Z,82.27
2022-08-19T08:16:54.876Z,82.07
2022-08-19T08:17:59.127Z,82.65
2022-08-19T08:19:01.784Z,82.07
2022-08-19T08:20:07.845Z,82.20
2022-08-19T08:21:10.168Z,82.75
2022-08-19T08:22:33.031Z,83.65
2022-08-19T08:23:34.871Z,83.37
2022-08-19T08:24:37.283Z,83.90
2022-08-19T08:25:39.296Z,83.63
2022-08-19T08:26:46.793Z,82.37
2022-08-19T08:27:55.343Z,81.78
2022-08-19T08:28:57.906Z,81.76
2022-08-19T08:29:59.758Z,82.36
2022-08-19T08:31:09.521Z,82.46
2022-08-19T08:32:14.046Z,82.49
2022-08-19T08:33:33.123Z,82.33
2022-08-19T08:34:38.310Z,83.10
2022-08-19T08:35:43.016Z,83.32
2022-08-19T08:36:46.707Z,82.32
2022-08-19T08:37:51.335Z,80.97
2022-08-19T08:40:04.473Z,80.81
2022-08-19T08:41:22.869Z,79.09
2022-08-19T08:42:37.518Z,78.77
2022-08-19T08:43:44.455Z,79.53
2022-08-19T08:44:50.449Z,78.78
2022-08-19T08:46:12.370Z,79.32
2022-08-19T08:47:16.789Z,80.24
2022-08-19T08:48:38.900Z,79.53
2022-08-19T08:49:46.692Z,80.76
2022-08-19T08:50:54.707Z,80.26
2022-08-19T08:52:07.106Z,78.88
2022-08-19T08:53:10.022Z,78.44
2022-08-19T08:54:14.027Z,77.98
2022-08-19T08:55:22.069Z,77.80
2022-08-19T08:56:24.368Z,77.57
2022-08-19T08:57:41.059Z,78.41
2022-08-19T08:58:53.911Z,78.53
2022-08-19T08:59:58.371Z,79.28
2022-08-19T09:01:00.261Z,79.16
2022-08-19T09:02:02.815Z,78.18
2022-08-19T09:03:17.921Z,76.90
2022-08-19T09:04:19.881Z,78.24
2022-08-19T09:05:26.054Z,78.96
2022-08-19T09:06:31.219Z,79.62
2022-08-19T09:07:43.759Z,80.20
2022-08-19T09:08:58.883Z,79.94
2022-08-19T09:10:22.069Z,78.81
2022-08-19T09:11:42.880Z,80.32
2022-08-19T09:12:55.093Z,80.28
2022-08-19T09:14:03.196Z,80.98
2022-08-19T09:15:10.398Z,80.30
2022-08-19T09:16:17.324Z,79.62
2022-08-19T09:17:32.172Z,79.21
2022-08-19T09:19:00.527Z,77.21
2022-08-19T09:20:10.000Z,76.88
2022-08-19T09:21:11.816Z,77.63
2022-08-19T09:22:13.676Z,79.27
2022-08-19T09:23:27.020Z,78.41
2022-08-19T09:24:31.121Z,78.31
2022-08-19T09:25:35.691Z,78.19
2022-08-19T09:26:47.796Z,78.70
2022-08-19T09:28:03.011Z,78.62
2022-08-19T09:29:08.190Z,81.06
2022-08-19T09:30:11.708Z,80.90
2022-08-19T09:31:21.509Z,80.10
2022-08-19T09:32:26.492Z,80.15
2022-08-19T09:33:30.163Z,79.31
2022-08-19T09:34:33.141Z,78.98
2022-08-19T09:35:49.892Z,78.87
2022-08-19T09:36:56.625Z,79.07
2022-08-19T09:37:59.794Z,79.39
2022-08-19T09:39:01.985Z,79.12
2022-08-19T09:40:05.028Z,79.44
2022-08-19T09:41:08.203Z,79.78
2022-08-19T09:42:16.111Z,78.88
2022-08-19T09:43:33.833Z,77.99
2022-08-19T09:44:46.581Z,77.50
2022-08-19T09:45:49.116Z,78.00
2022-08-19T09:46:52.151Z,78.03
2022-08-19T09:47:55.128Z,77.60
2022-08-19T09:49:06.006Z,76.76
2022-08-19T09:50:10.182Z,76.37
2022-08-19T09:51:16.824Z,76.51
2022-08-19T09:52:19.526Z,76.61
2022-08-19T09:53:25.221Z,76.69
2022-08-19T09:54:28.146Z,76.68
2022-08-19T09:55:31.622Z,76.71
2022-08-19T09:56:34.573Z,76.31
2022-08-19T09:57:36.550Z,75.93
2022-08-19T09:58:38.905Z,75.29
2022-08-19T09:59:41.427Z,75.55
2022-08-19T10:00:43.325Z,75.57
2022-08-19T10:01:48.944Z,75.23
2022-08-19T10:02:51.250Z,74.10
2022-08-19T10:03:57.110Z,74.39
2022-08-19T10:05:18.965Z,74.13
2022-08-19T10:06:41.973Z,73.83
2022-08-19T10:07:48.371Z,73.96
2022-08-19T10:08:50.910Z,73.72
2022-08-19T10:09:52.714Z,70.99
2022-08-19T10:10:56.110Z,71.14
2022-08-19T10:11:58.045Z,70.79
2022-08-19T10:12:59.980Z,71.48
2022-08-19T10:14:03.819Z,71.56
2022-08-19T10:15:07.379Z,70.48
2022-08-19T10:16:11.136Z,69.29
2022-08-19T10:17:19.843Z,69.82
2022-08-19T10:18:25.711Z,70.30
2022-08-19T10:19:29.586Z,70.47
2022-08-19T10:20:31.668Z,70.12
2022-08-19T10:21:34.143Z,70.23
2022-08-19T10:22:38.700Z,69.93
2022-08-19T10:23:42.716Z,70.23
2022-08-19T10:24:44.585Z,69.92
2022-08-19T10:25:46.603Z,70.10
2022-08-19T10:26:57.177Z,69.91
2022-08-19T10:28:01.584Z,70.35
2022-08-19T10:29:05.996Z,70.17
2022-08-19T10:30:11.493Z,70.88
2022-08-19T10:31:19.396Z,70.14
2022-08-19T10:32:33.661Z,70.70
2022-08-19T10:33:52.999Z,67.55
2022-08-19T10:34:57.231Z,67.62
2022-08-19T10:36:08.524Z,68.29
2022-08-19T10:37:10.917Z,68.75
2022-08-19T10:38:16.444Z,68.75
2022-08-19T10:39:18.530Z,67.57
2022-08-19T10:40:26.077Z,68.46
2022-08-19T10:41:29.772Z,67.88
2022-08-19T10:42:32.548Z,69.25
2022-08-19T10:43:39.288Z,68.88
2022-08-19T10:44:41.272Z,68.88
2022-08-19T10:45:52.632Z,68.43
2022-08-19T10:46:54.740Z,69.13
2022-08-19T10:47:58.588Z,66.86
2022-08-19T10:49:01.541Z,67.12
2022-08-19T10:50:28.484Z,67.01
2022-08-19T10:51:49.610Z,66.88
2022-08-19T10:52:51.754Z,65.65
2022-08-19T10:53:54.747Z,66.32
2022-08-19T10:55:14.866Z,66.57
2022-08-19T10:56:36.218Z,66.24
2022-08-19T10:58:01.403Z,66.49
2022-08-19T10:59:00.815Z,67.13
2022-08-19T11:00:02.778Z,66.96
2022-08-19T11:01:05.424Z,66.29
2022-08-19T11:02:11.178Z,64.33
2022-08-19T11:03:13.000Z,64.87
2022-08-19T11:04:15.065Z,63.45
2022-08-19T11:05:18.417Z,64.42
2022-08-19T11:06:21.815Z,63.69
2022-08-19T11:07:26.370Z,62.83
2022-08-19T11:08:28.782Z,62.62
2022-08-19T11:09:34.375Z,62.89
2022-08-19T11:10:37.057Z,63.17
2022-08-19T11:11:42.093Z,64.40
2022-08-19T11:12:44.043Z,63.95
2022-08-19T11:13:47.085Z,63.11
2022-08-19T11:14:51.058Z,62.90
2022-08-19T11:16:05.132Z,62.92
2022-08-19T11:17:09.399Z,62.29
2022-08-19T11:18:13.341Z,62.42
2022-08-19T11:19:18.398Z,61.98
2022-08-19T11:20:20.253Z,62.94
2022-08-19T11:21:23.888Z,63.28
2022-08-19T11:22:28.843Z,62.70
2022-08-19T11:23:41.282Z,63.23
2022-08-19T11:24:43.185Z,63.47
2022-08-19T11:25:46.653Z,62.54
2022-08-19T11:26:50.568Z,62.41
2022-08-19T11:27:53.485Z,62.44
2022-08-19T11:28:55.862Z,61.43
2022-08-19T11:29:57.738Z,63.19
2022-08-19T11:30:59.672Z,61.92
2022-08-19T11:32:04.578Z,63.15
2022-08-19T11:33:06.431Z,63.27
2022-08-19T11:34:09.899Z,64.72
2022-08-19T11:35:12.576Z,64.31
2022-08-19T11:36:15.044Z,64.68
2022-08-19T11:37:16.996Z,64.14
2022-08-19T11:38:19.734Z,63.93
2022-08-19T11:39:22.633Z,64.26
2022-08-19T11:40:24.418Z,64.66
2022-08-19T11:41:26.633Z,64.90
2022-08-19T11:42:46.809Z,65.26
2022-08-19T11:43:48.692Z,64.49
2022-08-19T11:44:50.787Z,65.39
2022-08-19T11:45:52.672Z,66.37
2022-08-19T11:46:54.747Z,65.52
2022-08-19T11:47:57.271Z,65.74
2022-08-19T11:49:00.628Z,66.48
2022-08-19T11:50:02.541Z,66.81
2022-08-19T11:51:07.359Z,66.94
2022-08-19T11:52:09.423Z,66.79
2022-08-19T11:53:11.329Z,67.35
2022-08-19T11:54:17.601Z,67.44
2022-08-19T11:55:20.710Z,67.02
2022-08-19T11:56:23.449Z,66.74
2022-08-19T11:57:25.300Z,67.03
2022-08-19T11:58:27.243Z,67.24
2022-08-19T11:59:31.418Z,67.39
2022-08-19T12:00:36.680Z,67.07
2022-08-19T12:01:38.579Z,67.88
2022-08-19T12:02:44.369Z,67.32
2022-08-19T12:03:47.512Z,67.87
2022-08-19T12:04:49.605Z,67.51
2022-08-19T12:05:51.902Z,68.04
2022-08-19T12:06:54.626Z,67.67
2022-08-19T12:08:02.320Z,66.32
2022-08-19T12:09:06.186Z,66.26
2022-08-19T12:10:08.717Z,66.65
2022-08-19T12:11:11.617Z,66.42
2022-08-19T12:12:13.551Z,66.61
2022-08-19T12:13:19.741Z,67.15
2022-08-19T12:14:21.601Z,66.81
2022-08-19T12:15:23.439Z,64.93
2022-08-19T12:16:26.679Z,65.15
2022-08-19T12:17:28.995Z,64.97
2022-08-19T12:18:31.119Z,65.50
2022-08-19T12:19:32.944Z,64.87
2022-08-19T12:20:39.753Z,64.71
2022-08-19T12:21:41.563Z,64.40
2022-08-19T12:22:43.472Z,65.10
2022-08-19T12:23:46.705Z,64.98
2022-08-19T12:24:51.504Z,64.27
2022-08-19T12:25:53.416Z,65.79
2022-08-19T12:26:56.611Z,64.65
2022-08-19T12:28:03.149Z,64.70
2022-08-19T12:29:06.270Z,64.84
2022-08-19T12:30:10.240Z,63.96
2022-08-19T12:31:14.952Z,65.09
2022-08-19T12:32:18.302Z,65.01
2022-08-19T12:33:25.629Z,64.76
2022-08-19T12:34:27.485Z,63.25
2022-08-19T12:35:30.057Z,62.74
2022-08-19T12:36:32.143Z,61.78
2022-08-19T12:37:34.919Z,62.08
2022-08-19T12:38:37.420Z,61.62
2022-08-19T12:39:40.771Z,62.37
2022-08-19T12:40:43.058Z,62.82
2022-08-19T12:41:51.506Z,62.93
2022-08-19T12:42:56.861Z,63.39
2022-08-19T12:43:59.569Z,63.16
2022-08-19T12:45:02.762Z,63.62
2022-08-19T12:46:07.121Z,64.44
2022-08-19T12:47:13.582Z,62.80
2022-08-19T12:48:34.574Z,63.45
2022-08-19T12:49:55.009Z,63.95
2022-08-19T12:50:57.992Z,63.51
2022-08-19T12:51:59.898Z,64.66
2022-08-19T12:53:01.752Z,63.93
2022-08-19T12:54:03.793Z,63.78
2022-08-19T12:55:06.841Z,64.15
2022-08-19T12:56:12.298Z,64.19
2022-08-19T12:57:14.772Z,65.51
2022-08-19T12:58:16.657Z,65.92
2022-08-19T12:59:19.275Z,65.38
2022-08-19T13:00:22.886Z,65.44
2022-08-19T13:01:24.842Z,65.38
2022-08-19T13:02:27.613Z,65.04
2022-08-19T13:03:30.850Z,65.11
2022-08-19T13:04:32.957Z,65.44
2022-08-19T13:05:35.528Z,64.86
2022-08-19T13:06:38.280Z,65.39
2022-08-19T13:07:41.496Z,64.36
2022-08-19T13:08:43.320Z,64.57
2022-08-19T13:09:48.443Z,64.62
2022-08-19T13:10:50.242Z,64.92
2022-08-19T13:11:52.181Z,65.41
2022-08-19T13:12:54.457Z,65.24
2022-08-19T13:13:56.456Z,65.40
2022-08-19T13:14:58.464Z,64.92
2022-08-19T13:16:04.506Z,65.77
2022-08-19T13:17:06.393Z,65.77
2022-08-19T13:18:10.182Z,65.36
2022-08-19T13:19:13.320Z,66.13
2022-08-19T13:20:15.776Z,66.12
2022-08-19T13:21:17.601Z,66.23
2022-08-19T13:22:22.576Z,65.99
2022-08-19T13:23:24.512Z,66.21
2022-08-19T13:24:27.671Z,66.18
2022-08-19T13:25:36.385Z,66.31
2022-08-19T13:26:38.182Z,65.97
2022-08-19T13:27:40.352Z,66.45
2022-08-19T13:29:01.968Z,65.22
2022-08-19T13:30:23.148Z,64.65
2022-08-19T13:31:44.990Z,63.45
2022-08-19T13:33:05.215Z,64.64
2022-08-19T13:34:07.438Z,63.72
2022-08-19T13:35:11.835Z,63.47
2022-08-19T13:36:15.575Z,63.50
2022-08-19T13:37:17.339Z,62.92
2022-08-19T13:38:21.615Z,63.12
2022-08-19T13:39:24.347Z,61.42
2022-08-19T13:40:27.932Z,63.00
2022-08-19T13:41:30.334Z,62.43
2022-08-19T13:42:32.685Z,63.10
2022-08-19T13:43:34.567Z,61.73
2022-08-19T13:44:36.500Z,61.06
2022-08-19T13:45:38.461Z,61.01
2022-08-19T13:46:40.639Z,61.52
2022-08-19T13:47:46.865Z,60.44
2022-08-19T13:48:49.700Z,61.22
2022-08-19T13:49:51.610Z,60.72
2022-08-19T13:50:53.509Z,59.42
2022-08-19T13:51:55.368Z,60.80
2022-08-19T13:52:57.357Z,60.46
2022-08-19T13:53:59.186Z,60.98
2022-08-19T13:55:01.044Z,60.75
2022-08-19T13:56:06.437Z,60.37
2022-08-19T13:57:08.286Z,59.95
2022-08-19T13:58:12.039Z,59.21